Grand Haven, Michigan
Current Conditions -  °F | °C
As of 11:55 AM on Thursday 30 Oct 2014 (Local Time) from KMKG Reporting Station
Overcast Overcast  
Wind Chill: 51°   Ceiling: 4400
Heat Index: 51°   Visibility: 10mi
Dew Point: 36°   Wind: 13mph
Humidity: 56%   Direction: 240°WSW
Pressure: 30.11"   Gusts: NA
Location:  43.06°N, 86.22°W
Report Text: KMKG 301555Z 24011KT 10SM SCT033 OVC044 11/02 A3011 RMK AO2 SLP198 T01060022
Loading
Personal Weather Stations






























Interactive Weather Map
Tropical Storm Tracking
New forecast layout! Learn more

10-Day Weather Forecast

Advertisements
Track Severe Weather on mobile